Terminal Aerodrome Forecast
Issued by NWS Dallas/Fort Worth, TX

Home | Current Version | Previous Version | Text Only | Print | Product List | Glossary On
Versions: 1 2 3 4 5 6 7 8 9 10 11 12 13 14 15 16 17 18 19 20 21 22 23 24 25 26 27 28 29 30 31 32
000
FTUS44 KFWD 051734
TAFACT
TAF
KACT 051734Z 0518/0618 35006KT 3SM -RA BR BKN010 OVC025
     FM051900 32004KT 3SM -RA BR BKN008 OVC020
     FM052300 25004KT 2SM -DZ BR BKN005 BKN080
     FM060400 21004KT 1SM BR SCT008
     FM060900 23006KT 1SM BR SKC
     FM061400 34008KT 5SM -DZ BR OVC010=

USA.gov is the U.S. government's official web portal to all federal, state and local government web resources and services.